MMDO/DGO METAR and TAF weather

Enter ICAO airport designator
Station Type Date Time Source
MMDO METAR 2022/12/08 11:04 UTC NOAA

MMDO 081104Z RTD 00000KT 6SM SKC 05/01 A3036 RMK RTS


Station Type Date Time Source
MMDO Decoded METAR 2022/12/08 11:04 UTC NOAA

Durango Airport, Mexico (MMDO) 24-08N 104-32W
Dec 08, 2022 - 06:04 AM EST / 2022.12.08 1104 UTC
Wind: Calm:0
Visibility: 6 mile(s):0
Sky conditions: clear
Temperature: 41 F (5 C)
Dew Point: 33 F (1 C)
Relative Humidity: 75%
Pressure (altimeter): 30.36 in. Hg (1028 hPa)
ob: MMDO 081104Z RTD 00000KT 6SM SKC 05/01 A3036 RMK RTS
cycle: 11

Station Type Date Time Source
MMDO TAF 2022/12/08 06:14 UTC NOAA

TAF MMDO 080506Z 0806/0906 15005KT P6SM SKC
FM081600 00000KT P6SM SKC
FM090300 00000KT P6SM SKC

Example: see airport list